Terminal Aerodrome Forecast
Issued by NWS

Home | Current Version | Previous Version | Text Only | Print | Product List | Glossary Off
Versions: 1 2 3 4 5 6 7 8 9 10 11 12 13 14 15

000
FTUS43 KMPX 211720
TAFAXN
TAF
KAXN 211720Z 2118/2218 29008KT P6SM SKC
     FM212100 24006KT P6SM FEW250
     FM220000 18007KT P6SM SCT250
     FM221500 19014G20KT P6SM SKC=

USA.gov is the U.S. government's official web portal to all federal, state and local government web resources and services.